Eikyumaru No.8 — JL6210 — position and weather

sailwx.info

Track history (hours):
 
Tides and Currents Weather Stations Pressure Air Temp Water Temp Dewpoint Dewpoint Depression Visibility Wind Speed Wind Dir Waves Ship Positions

Eikyumaru No.8

Last reported at 2017-Sep-21 03:34 UTC. Time now 2017-Sep-23 23:48 UTC.
Position N 34°37' E 135°01'.

Length 54 m.

Type: Cargo ship. MMSI: 431500105.

Date/timePositionNaut miles runAvg speedWind from/ knotsBaromVisibWave heightAir tempDewpointWater temp
2017-Sep-21 03:34N 34°37' E 135°01'2 8.6
2017-Sep-21 03:17N 34°36' E 135°04'310.5
2017-Sep-21 02:58N 34°37' E 135°08'511.3
2017-Sep-21 02:30N 34°37' E 135°14'3 6.1
2017-Sep-21 02:00N 34°39' E 135°17'0 0.0
2017-Sep-21 01:30N 34°39' E 135°17'0 0.0
2017-Sep-21 00:54N 34°39' E 135°17'0 0.7
2017-Sep-21 00:23N 34°40' E 135°17'0 0.0
2017-Sep-20 23:59N 34°40' E 135°17'0 0.0
2017-Sep-20 22:59N 34°40' E 135°17'0 0.0
2017-Sep-20 22:29N 34°40' E 135°17'0 0.0
2017-Sep-20 21:53N 34°40' E 135°17'0 0.0
2017-Sep-20 21:29N 34°40' E 135°17'0 0.0
2017-Sep-20 20:59N 34°40' E 135°17'0 0.0
2017-Sep-20 20:29N 34°40' E 135°17'0 0.0
2017-Sep-20 19:59N 34°40' E 135°17'0 0.0
2017-Sep-20 19:29N 34°40' E 135°17'0 0.0
2017-Sep-20 18:59N 34°40' E 135°17'0 0.0
2017-Sep-20 18:23N 34°40' E 135°17'0 0.1
2017-Sep-20 17:59N 34°40' E 135°17'0 0.1
2017-Sep-20 17:29N 34°40' E 135°17'0 0.0
2017-Sep-20 16:59N 34°40' E 135°17'0 0.0
2017-Sep-20 16:29N 34°40' E 135°17'0 0.1
2017-Sep-20 15:59N 34°40' E 135°17'0 0.0
2017-Sep-20 15:23N 34°40' E 135°17'0 0.0
2017-Sep-20 14:53N 34°40' E 135°17'0 0.0
2017-Sep-20 13:59N 34°40' E 135°17'0 0.0
2017-Sep-20 13:29N 34°40' E 135°17'0 0.0
2017-Sep-20 12:59N 34°40' E 135°17'0 0.0
2017-Sep-20 12:29N 34°40' E 135°17'0 0.0
2017-Sep-20 11:59N 34°40' E 135°17'0 0.1
2017-Sep-20 11:29N 34°40' E 135°17'0 0.0
2017-Sep-20 10:59N 34°40' E 135°17'0 0.0
2017-Sep-20 10:17N 34°40' E 135°17'0 0.0
2017-Sep-20 09:59N 34°40' E 135°17'3 4.8
2017-Sep-20 09:26N 34°38' E 135°15'410.3
2017-Sep-20 09:00N 34°36' E 135°10'  
2017-Sep-14 01:50N 34°36' E 135°03'4 9.3
2017-Sep-14 01:26N 34°37' E 135°08'511.5
2017-Sep-14 01:00N 34°37' E 135°14'3 2.1
2017-Sep-13 23:22N 34°39' E 135°17'0 0.5
2017-Sep-13 22:56N 34°40' E 135°17'0 0.0
2017-Sep-13 22:26N 34°40' E 135°17'0 0.0
2017-Sep-13 21:50N 34°40' E 135°17'0 0.0
2017-Sep-13 21:26N 34°40' E 135°17'0 0.0
2017-Sep-13 20:56N 34°40' E 135°17'0 0.0
2017-Sep-13 20:26N 34°40' E 135°17'0 0.0
2017-Sep-13 19:56N 34°40' E 135°17'0 0.0
2017-Sep-13 19:20N 34°40' E 135°17'0 0.0
2017-Sep-13 18:44N 34°40' E 135°17'0 0.0
2017-Sep-13 18:20N 34°40' E 135°17'0 0.0
2017-Sep-13 17:53N 34°40' E 135°17'0 0.0
2017-Sep-13 17:17N 34°40' E 135°17'0 0.0
2017-Sep-13 16:59N 34°40' E 135°17'0 0.0
2017-Sep-13 15:59N 34°40' E 135°17'0 0.0
2017-Sep-13 15:29N 34°40' E 135°17'0 0.0
2017-Sep-13 14:59N 34°40' E 135°17'0 0.0
2017-Sep-13 14:29N 34°40' E 135°17'0 0.0
2017-Sep-13 13:59N 34°40' E 135°17'0 0.0
2017-Sep-13 13:29N 34°40' E 135°17'0 0.0
2017-Sep-13 12:59N 34°40' E 135°17'0 0.0
2017-Sep-13 12:23N 34°40' E 135°17'0 0.0
2017-Sep-13 11:53N 34°40' E 135°17'0 0.0
2017-Sep-13 11:29N 34°40' E 135°17'0 0.1
2017-Sep-13 10:47N 34°40' E 135°17'0 0.0
2017-Sep-13 10:29N 34°40' E 135°17'0 0.0
2017-Sep-13 09:59N 34°40' E 135°17'3 6.0
2017-Sep-13 09:29N 34°37' E 135°15'510.4
2017-Sep-13 08:59N 34°35' E 135°09'10 0.3
2017-Sep-12 02:29N 34°38' E 134°58'612.5
2017-Sep-12 02:00N 34°36' E 135°05'611.1
2017-Sep-12 01:29N 34°37' E 135°12'5 9.9
2017-Sep-12 01:00N 34°39' E 135°17'1 1.3
2017-Sep-12 00:27N 34°39' E 135°17'0 0.1
2017-Sep-11 23:58N 34°39' E 135°17'0 0.0
2017-Sep-11 23:27N 34°39' E 135°17'0 0.5
2017-Sep-11 22:55N 34°40' E 135°17'0 0.0
2017-Sep-11 22:25N 34°40' E 135°17'0 0.0
2017-Sep-11 21:55N 34°40' E 135°17'0 0.0
2017-Sep-11 21:25N 34°40' E 135°17'0 0.0
2017-Sep-11 20:55N 34°40' E 135°17'0 0.1
2017-Sep-11 20:25N 34°40' E 135°17'0 0.0
2017-Sep-11 19:55N 34°40' E 135°17'0 0.0
2017-Sep-11 19:25N 34°40' E 135°17'0 0.1
2017-Sep-11 18:55N 34°40' E 135°17'0 0.0
2017-Sep-11 18:25N 34°40' E 135°17'0 0.0
2017-Sep-11 17:55N 34°40' E 135°17'0 0.0
2017-Sep-11 17:25N 34°40' E 135°17'0 0.0
2017-Sep-11 16:49N 34°40' E 135°17'0 0.0
2017-Sep-11 16:25N 34°40' E 135°17'0 0.1
2017-Sep-11 15:55N 34°40' E 135°17'0 0.1
2017-Sep-11 15:25N 34°40' E 135°17'0 0.0
2017-Sep-11 14:55N 34°40' E 135°17'0 0.0
2017-Sep-11 14:25N 34°40' E 135°17'0 0.1
2017-Sep-11 13:55N 34°40' E 135°17'0 0.0
2017-Sep-11 13:25N 34°40' E 135°17'0 0.0
2017-Sep-11 12:55N 34°40' E 135°17'0 0.1
2017-Sep-11 12:25N 34°40' E 135°17'0 0.1
2017-Sep-11 11:55N 34°40' E 135°17'0 0.1
2017-Sep-11 11:25N 34°40' E 135°17'0 0.0
2017-Sep-11 10:49N 34°40' E 135°17'0 0.1
2017-Sep-11 10:19N 34°40' E 135°17'0 0.0
2017-Sep-11 09:55N 34°40' E 135°17'0 0.0
2017-Sep-11 09:19N 34°40' E 135°17'0 0.1
2017-Sep-11 08:55N 34°40' E 135°17'3 7.8
2017-Sep-11 08:30N 34°37' E 135°15'510.2
2017-Sep-11 07:59N 34°34' E 135°10'  
Track history (hours):
 
Tides and Currents Weather Stations Pressure Air Temp Water Temp Dewpoint Dewpoint Depression Visibility Wind Speed Wind Dir Waves Ship Positions

Eikyumaru No.8

Last reported at 2017-Sep-21 03:34 UTC. Time now 2017-Sep-23 23:48 UTC.
Position N 34°37' E 135°01'.

Length 54 m.

Type: Cargo ship. MMSI: 431500105.

Date/timePositionNaut miles runAvg speedWind from/ knotsBaromVisibWave heightAir tempDewpointWater temp
2017-Sep-21 03:34N 34°37' E 135°01'2 8.6
2017-Sep-21 03:17N 34°36' E 135°04'310.5
2017-Sep-21 02:58N 34°37' E 135°08'511.3
2017-Sep-21 02:30N 34°37' E 135°14'3 6.1
2017-Sep-21 02:00N 34°39' E 135°17'0 0.0
2017-Sep-21 01:30N 34°39' E 135°17'0 0.0
2017-Sep-21 00:54N 34°39' E 135°17'0 0.7
2017-Sep-21 00:23N 34°40' E 135°17'0 0.0
2017-Sep-20 23:59N 34°40' E 135°17'0 0.0
2017-Sep-20 22:59N 34°40' E 135°17'0 0.0
2017-Sep-20 22:29N 34°40' E 135°17'0 0.0
2017-Sep-20 21:53N 34°40' E 135°17'0 0.0
2017-Sep-20 21:29N 34°40' E 135°17'0 0.0
2017-Sep-20 20:59N 34°40' E 135°17'0 0.0
2017-Sep-20 20:29N 34°40' E 135°17'0 0.0
2017-Sep-20 19:59N 34°40' E 135°17'0 0.0
2017-Sep-20 19:29N 34°40' E 135°17'0 0.0
2017-Sep-20 18:59N 34°40' E 135°17'0 0.0
2017-Sep-20 18:23N 34°40' E 135°17'0 0.1
2017-Sep-20 17:59N 34°40' E 135°17'0 0.1
2017-Sep-20 17:29N 34°40' E 135°17'0 0.0
2017-Sep-20 16:59N 34°40' E 135°17'0 0.0
2017-Sep-20 16:29N 34°40' E 135°17'0 0.1
2017-Sep-20 15:59N 34°40' E 135°17'0 0.0
2017-Sep-20 15:23N 34°40' E 135°17'0 0.0
2017-Sep-20 14:53N 34°40' E 135°17'0 0.0
2017-Sep-20 13:59N 34°40' E 135°17'0 0.0
2017-Sep-20 13:29N 34°40' E 135°17'0 0.0
2017-Sep-20 12:59N 34°40' E 135°17'0 0.0
2017-Sep-20 12:29N 34°40' E 135°17'0 0.0
2017-Sep-20 11:59N 34°40' E 135°17'0 0.1
2017-Sep-20 11:29N 34°40' E 135°17'0 0.0
2017-Sep-20 10:59N 34°40' E 135°17'0 0.0
2017-Sep-20 10:17N 34°40' E 135°17'0 0.0
2017-Sep-20 09:59N 34°40' E 135°17'3 4.8
2017-Sep-20 09:26N 34°38' E 135°15'410.3
2017-Sep-20 09:00N 34°36' E 135°10'  
2017-Sep-14 01:50N 34°36' E 135°03'4 9.3
2017-Sep-14 01:26N 34°37' E 135°08'511.5
2017-Sep-14 01:00N 34°37' E 135°14'3 2.1
2017-Sep-13 23:22N 34°39' E 135°17'0 0.5
2017-Sep-13 22:56N 34°40' E 135°17'0 0.0
2017-Sep-13 22:26N 34°40' E 135°17'0 0.0
2017-Sep-13 21:50N 34°40' E 135°17'0 0.0
2017-Sep-13 21:26N 34°40' E 135°17'0 0.0
2017-Sep-13 20:56N 34°40' E 135°17'0 0.0
2017-Sep-13 20:26N 34°40' E 135°17'0 0.0
2017-Sep-13 19:56N 34°40' E 135°17'0 0.0
2017-Sep-13 19:20N 34°40' E 135°17'0 0.0
2017-Sep-13 18:44N 34°40' E 135°17'0 0.0
2017-Sep-13 18:20N 34°40' E 135°17'0 0.0
2017-Sep-13 17:53N 34°40' E 135°17'0 0.0
2017-Sep-13 17:17N 34°40' E 135°17'0 0.0
2017-Sep-13 16:59N 34°40' E 135°17'0 0.0
2017-Sep-13 15:59N 34°40' E 135°17'0 0.0
2017-Sep-13 15:29N 34°40' E 135°17'0 0.0
2017-Sep-13 14:59N 34°40' E 135°17'0 0.0
2017-Sep-13 14:29N 34°40' E 135°17'0 0.0
2017-Sep-13 13:59N 34°40' E 135°17'0 0.0
2017-Sep-13 13:29N 34°40' E 135°17'0 0.0
2017-Sep-13 12:59N 34°40' E 135°17'0 0.0
2017-Sep-13 12:23N 34°40' E 135°17'0 0.0
2017-Sep-13 11:53N 34°40' E 135°17'0 0.0
2017-Sep-13 11:29N 34°40' E 135°17'0 0.1
2017-Sep-13 10:47N 34°40' E 135°17'0 0.0
2017-Sep-13 10:29N 34°40' E 135°17'0 0.0
2017-Sep-13 09:59N 34°40' E 135°17'3 6.0
2017-Sep-13 09:29N 34°37' E 135°15'510.4
2017-Sep-13 08:59N 34°35' E 135°09'10 0.3
2017-Sep-12 02:29N 34°38' E 134°58'612.5
2017-Sep-12 02:00N 34°36' E 135°05'611.1
2017-Sep-12 01:29N 34°37' E 135°12'5 9.9
2017-Sep-12 01:00N 34°39' E 135°17'1 1.3
2017-Sep-12 00:27N 34°39' E 135°17'0 0.1
2017-Sep-11 23:58N 34°39' E 135°17'0 0.0
2017-Sep-11 23:27N 34°39' E 135°17'0 0.5
2017-Sep-11 22:55N 34°40' E 135°17'0 0.0
2017-Sep-11 22:25N 34°40' E 135°17'0 0.0
2017-Sep-11 21:55N 34°40' E 135°17'0 0.0
2017-Sep-11 21:25N 34°40' E 135°17'0 0.0
2017-Sep-11 20:55N 34°40' E 135°17'0 0.1
2017-Sep-11 20:25N 34°40' E 135°17'0 0.0
2017-Sep-11 19:55N 34°40' E 135°17'0 0.0
2017-Sep-11 19:25N 34°40' E 135°17'0 0.1
2017-Sep-11 18:55N 34°40' E 135°17'0 0.0
2017-Sep-11 18:25N 34°40' E 135°17'0 0.0
2017-Sep-11 17:55N 34°40' E 135°17'0 0.0
2017-Sep-11 17:25N 34°40' E 135°17'0 0.0
2017-Sep-11 16:49N 34°40' E 135°17'0 0.0
2017-Sep-11 16:25N 34°40' E 135°17'0 0.1
2017-Sep-11 15:55N 34°40' E 135°17'0 0.1
2017-Sep-11 15:25N 34°40' E 135°17'0 0.0
2017-Sep-11 14:55N 34°40' E 135°17'0 0.0
2017-Sep-11 14:25N 34°40' E 135°17'0 0.1
2017-Sep-11 13:55N 34°40' E 135°17'0 0.0
2017-Sep-11 13:25N 34°40' E 135°17'0 0.0
2017-Sep-11 12:55N 34°40' E 135°17'0 0.1
2017-Sep-11 12:25N 34°40' E 135°17'0 0.1
2017-Sep-11 11:55N 34°40' E 135°17'0 0.1
2017-Sep-11 11:25N 34°40' E 135°17'0 0.0
2017-Sep-11 10:49N 34°40' E 135°17'0 0.1
2017-Sep-11 10:19N 34°40' E 135°17'0 0.0
2017-Sep-11 09:55N 34°40' E 135°17'0 0.0
2017-Sep-11 09:19N 34°40' E 135°17'0 0.1
2017-Sep-11 08:55N 34°40' E 135°17'3 7.8
2017-Sep-11 08:30N 34°37' E 135°15'510.2
2017-Sep-11 07:59N 34°34' E 135°10'  

Dump ship's entire track history